sensor_id;sensor_type;location;lat;lon;timestamp;P1;durP1;ratioP1;P2;durP2;ratioP2
8887;SDS011;4480;52.370;9.748;2023-04-06T00:00:09;11.77;;;9.65;;
8887;SDS011;4480;52.370;9.748;2023-04-06T00:02:38;13.27;;;9.68;;
8887;SDS011;4480;52.370;9.748;2023-04-06T00:05:06;13.82;;;9.82;;
8887;SDS011;4480;52.370;9.748;2023-04-06T00:07:33;11.13;;;9.98;;
8887;SDS011;4480;52.370;9.748;2023-04-06T00:10:00;11.07;;;10.00;;
8887;SDS011;4480;52.370;9.748;2023-04-06T00:12:28;11.40;;;9.98;;
8887;SDS011;4480;52.370;9.748;2023-04-06T00:14:55;12.27;;;10.35;;
8887;SDS011;4480;52.370;9.748;2023-04-06T00:17:21;10.70;;;9.30;;
8887;SDS011;4480;52.370;9.748;2023-04-06T00:19:50;15.57;;;10.32;;
8887;SDS011;4480;52.370;9.748;2023-04-06T00:22:17;11.65;;;10.10;;
8887;SDS011;4480;52.370;9.748;2023-04-06T00:24:43;11.48;;;9.95;;
8887;SDS011;4480;52.370;9.748;2023-04-06T00:27:10;14.02;;;10.52;;
8887;SDS011;4480;52.370;9.748;2023-04-06T00:29:37;10.85;;;8.88;;
8887;SDS011;4480;52.370;9.748;2023-04-06T00:32:05;13.90;;;10.63;;
8887;SDS011;4480;52.370;9.748;2023-04-06T00:34:32;14.43;;;10.40;;
8887;SDS011;4480;52.370;9.748;2023-04-06T00:37:01;11.85;;;10.45;;
8887;SDS011;4480;52.370;9.748;2023-04-06T00:39:27;12.70;;;9.77;;
8887;SDS011;4480;52.370;9.748;2023-04-06T00:41:54;12.20;;;10.75;;
8887;SDS011;4480;52.370;9.748;2023-04-06T00:44:22;11.05;;;9.85;;
8887;SDS011;4480;52.370;9.748;2023-04-06T00:46:50;12.85;;;9.70;;
8887;SDS011;4480;52.370;9.748;2023-04-06T00:49:17;11.07;;;9.90;;
8887;SDS011;4480;52.370;9.748;2023-04-06T00:51:44;12.07;;;10.45;;
8887;SDS011;4480;52.370;9.748;2023-04-06T00:54:12;12.93;;;10.15;;
8887;SDS011;4480;52.370;9.748;2023-04-06T00:56:39;11.80;;;9.57;;
8887;SDS011;4480;52.370;9.748;2023-04-06T00:59:08;21.10;;;9.57;;
8887;SDS011;4480;52.370;9.748;2023-04-06T01:01:35;11.50;;;9.82;;
8887;SDS011;4480;52.370;9.748;2023-04-06T01:04:02;13.75;;;10.05;;
8887;SDS011;4480;52.370;9.748;2023-04-06T01:06:29;10.00;;;8.80;;
8887;SDS011;4480;52.370;9.748;2023-04-06T01:08:56;12.05;;;8.95;;
8887;SDS011;4480;52.370;9.748;2023-04-06T01:11:24;10.35;;;9.23;;
8887;SDS011;4480;52.370;9.748;2023-04-06T01:13:51;11.60;;;9.60;;
8887;SDS011;4480;52.370;9.748;2023-04-06T01:16:19;10.80;;;9.07;;
8887;SDS011;4480;52.370;9.748;2023-04-06T01:18:46;10.82;;;9.57;;
8887;SDS011;4480;52.370;9.748;2023-04-06T01:21:12;11.05;;;9.55;;
8887;SDS011;4480;52.370;9.748;2023-04-06T01:23:43;12.40;;;9.18;;
8887;SDS011;4480;52.370;9.748;2023-04-06T01:26:11;8.77;;;7.90;;
8887;SDS011;4480;52.370;9.748;2023-04-06T01:28:38;9.88;;;8.55;;
8887;SDS011;4480;52.370;9.748;2023-04-06T01:31:08;11.50;;;9.60;;
8887;SDS011;4480;52.370;9.748;2023-04-06T01:33:35;10.40;;;9.25;;
8887;SDS011;4480;52.370;9.748;2023-04-06T01:36:02;11.10;;;8.70;;
8887;SDS011;4480;52.370;9.748;2023-04-06T01:38:29;10.13;;;8.65;;
8887;SDS011;4480;52.370;9.748;2023-04-06T01:40:57;12.98;;;9.30;;
8887;SDS011;4480;52.370;9.748;2023-04-06T01:43:24;13.55;;;9.23;;
8887;SDS011;4480;52.370;9.748;2023-04-06T01:45:51;11.95;;;9.43;;
8887;SDS011;4480;52.370;9.748;2023-04-06T01:48:18;9.85;;;8.32;;
8887;SDS011;4480;52.370;9.748;2023-04-06T01:50:45;9.52;;;8.57;;
8887;SDS011;4480;52.370;9.748;2023-04-06T01:53:12;11.40;;;8.68;;
8887;SDS011;4480;52.370;9.748;2023-04-06T01:55:39;11.45;;;9.70;;
8887;SDS011;4480;52.370;9.748;2023-04-06T01:58:07;11.77;;;8.70;;
8887;SDS011;4480;52.370;9.748;2023-04-06T02:00:34;10.77;;;8.73;;
8887;SDS011;4480;52.370;9.748;2023-04-06T02:03:01;10.07;;;9.02;;
8887;SDS011;4480;52.370;9.748;2023-04-06T02:05:29;9.38;;;8.30;;
8887;SDS011;4480;52.370;9.748;2023-04-06T02:07:58;11.65;;;8.80;;
8887;SDS011;4480;52.370;9.748;2023-04-06T02:10:25;11.52;;;8.90;;
8887;SDS011;4480;52.370;9.748;2023-04-06T02:12:52;11.00;;;9.40;;
8887;SDS011;4480;52.370;9.748;2023-04-06T02:15:20;9.93;;;8.13;;
8887;SDS011;4480;52.370;9.748;2023-04-06T02:17:47;13.43;;;10.27;;
8887;SDS011;4480;52.370;9.748;2023-04-06T02:20:13;11.02;;;9.25;;
8887;SDS011;4480;52.370;9.748;2023-04-06T02:22:41;11.02;;;8.65;;
8887;SDS011;4480;52.370;9.748;2023-04-06T02:25:08;14.15;;;9.95;;
8887;SDS011;4480;52.370;9.748;2023-04-06T02:27:35;15.23;;;10.85;;
8887;SDS011;4480;52.370;9.748;2023-04-06T02:30:02;9.73;;;8.80;;
8887;SDS011;4480;52.370;9.748;2023-04-06T02:32:30;13.60;;;9.98;;
8887;SDS011;4480;52.370;9.748;2023-04-06T02:34:57;10.65;;;9.32;;
8887;SDS011;4480;52.370;9.748;2023-04-06T02:37:24;13.13;;;11.77;;
8887;SDS011;4480;52.370;9.748;2023-04-06T02:39:51;11.20;;;9.43;;
8887;SDS011;4480;52.370;9.748;2023-04-06T02:42:18;10.75;;;9.68;;
8887;SDS011;4480;52.370;9.748;2023-04-06T02:44:45;11.82;;;8.82;;
8887;SDS011;4480;52.370;9.748;2023-04-06T02:47:12;10.50;;;9.40;;
8887;SDS011;4480;52.370;9.748;2023-04-06T02:49:40;11.85;;;9.43;;
8887;SDS011;4480;52.370;9.748;2023-04-06T02:52:07;12.52;;;11.25;;
8887;SDS011;4480;52.370;9.748;2023-04-06T02:54:34;10.80;;;9.70;;
8887;SDS011;4480;52.370;9.748;2023-04-06T02:57:00;12.98;;;10.02;;
8887;SDS011;4480;52.370;9.748;2023-04-06T02:59:27;13.80;;;10.68;;
8887;SDS011;4480;52.370;9.748;2023-04-06T03:01:54;9.35;;;8.45;;
8887;SDS011;4480;52.370;9.748;2023-04-06T03:04:21;11.45;;;9.95;;
8887;SDS011;4480;52.370;9.748;2023-04-06T03:06:51;11.27;;;9.20;;
8887;SDS011;4480;52.370;9.748;2023-04-06T03:09:20;10.93;;;9.43;;
8887;SDS011;4480;52.370;9.748;2023-04-06T03:11:47;12.18;;;8.93;;
8887;SDS011;4480;52.370;9.748;2023-04-06T03:14:14;11.95;;;9.35;;
8887;SDS011;4480;52.370;9.748;2023-04-06T03:16:42;12.55;;;9.02;;
8887;SDS011;4480;52.370;9.748;2023-04-06T03:19:09;9.77;;;8.60;;
8887;SDS011;4480;52.370;9.748;2023-04-06T03:21:36;11.05;;;9.95;;
8887;SDS011;4480;52.370;9.748;2023-04-06T03:24:05;12.63;;;9.05;;
8887;SDS011;4480;52.370;9.748;2023-04-06T03:26:32;10.95;;;9.25;;
8887;SDS011;4480;52.370;9.748;2023-04-06T03:28:59;13.00;;;9.02;;
8887;SDS011;4480;52.370;9.748;2023-04-06T03:31:26;10.00;;;8.93;;
8887;SDS011;4480;52.370;9.748;2023-04-06T03:33:53;14.02;;;10.00;;
8887;SDS011;4480;52.370;9.748;2023-04-06T03:36:20;11.20;;;8.90;;
8887;SDS011;4480;52.370;9.748;2023-04-06T03:38:47;15.15;;;11.07;;
8887;SDS011;4480;52.370;9.748;2023-04-06T03:41:15;11.50;;;8.68;;
8887;SDS011;4480;52.370;9.748;2023-04-06T03:43:42;10.38;;;8.35;;
8887;SDS011;4480;52.370;9.748;2023-04-06T03:46:09;9.30;;;8.23;;
8887;SDS011;4480;52.370;9.748;2023-04-06T03:48:36;10.02;;;8.15;;
8887;SDS011;4480;52.370;9.748;2023-04-06T03:51:03;10.25;;;8.85;;
8887;SDS011;4480;52.370;9.748;2023-04-06T03:53:30;11.93;;;8.35;;
8887;SDS011;4480;52.370;9.748;2023-04-06T03:55:57;11.43;;;8.85;;
8887;SDS011;4480;52.370;9.748;2023-04-06T03:58:26;8.95;;;7.70;;
8887;SDS011;4480;52.370;9.748;2023-04-06T04:00:53;11.60;;;8.30;;
8887;SDS011;4480;52.370;9.748;2023-04-06T04:03:19;10.52;;;8.80;;
8887;SDS011;4480;52.370;9.748;2023-04-06T04:05:48;9.57;;;8.68;;
8887;SDS011;4480;52.370;9.748;2023-04-06T04:11:28;9.23;;;7.57;;
8887;SDS011;4480;52.370;9.748;2023-04-06T04:13:55;8.77;;;6.95;;
8887;SDS011;4480;52.370;9.748;2023-04-06T04:16:22;12.48;;;8.68;;
8887;SDS011;4480;52.370;9.748;2023-04-06T04:18:49;8.68;;;7.78;;
8887;SDS011;4480;52.370;9.748;2023-04-06T04:21:16;10.80;;;8.35;;
8887;SDS011;4480;52.370;9.748;2023-04-06T04:23:42;10.60;;;8.43;;
8887;SDS011;4480;52.370;9.748;2023-04-06T04:26:09;10.55;;;8.10;;
8887;SDS011;4480;52.370;9.748;2023-04-06T04:28:38;11.40;;;6.90;;
8887;SDS011;4480;52.370;9.748;2023-04-06T04:31:04;11.20;;;7.43;;
8887;SDS011;4480;52.370;9.748;2023-04-06T04:33:31;13.07;;;6.72;;
8887;SDS011;4480;52.370;9.748;2023-04-06T04:35:58;9.65;;;8.32;;
8887;SDS011;4480;52.370;9.748;2023-04-06T04:38:25;8.73;;;7.72;;
8887;SDS011;4480;52.370;9.748;2023-04-06T04:40:52;9.25;;;7.93;;
8887;SDS011;4480;52.370;9.748;2023-04-06T04:43:19;9.45;;;7.53;;
8887;SDS011;4480;52.370;9.748;2023-04-06T04:45:47;13.75;;;7.90;;
8887;SDS011;4480;52.370;9.748;2023-04-06T04:48:14;8.55;;;7.75;;
8887;SDS011;4480;52.370;9.748;2023-04-06T04:50:41;9.80;;;8.10;;
8887;SDS011;4480;52.370;9.748;2023-04-06T04:53:08;9.32;;;8.02;;
8887;SDS011;4480;52.370;9.748;2023-04-06T04:55:35;9.55;;;7.50;;
8887;SDS011;4480;52.370;9.748;2023-04-06T04:58:02;9.02;;;6.82;;
8887;SDS011;4480;52.370;9.748;2023-04-06T05:00:29;9.80;;;8.15;;
8887;SDS011;4480;52.370;9.748;2023-04-06T05:02:57;13.30;;;7.97;;
8887;SDS011;4480;52.370;9.748;2023-04-06T05:05:24;14.27;;;8.07;;
8887;SDS011;4480;52.370;9.748;2023-04-06T05:07:51;11.80;;;8.30;;
8887;SDS011;4480;52.370;9.748;2023-04-06T05:10:18;9.93;;;8.57;;
8887;SDS011;4480;52.370;9.748;2023-04-06T05:12:45;9.25;;;8.25;;
8887;SDS011;4480;52.370;9.748;2023-04-06T05:15:12;10.85;;;8.40;;
8887;SDS011;4480;52.370;9.748;2023-04-06T05:17:39;10.52;;;8.60;;
8887;SDS011;4480;52.370;9.748;2023-04-06T05:20:08;10.77;;;8.73;;
8887;SDS011;4480;52.370;9.748;2023-04-06T05:22:35;12.43;;;9.07;;
8887;SDS011;4480;52.370;9.748;2023-04-06T05:25:02;9.63;;;8.48;;
8887;SDS011;4480;52.370;9.748;2023-04-06T05:27:30;10.90;;;7.72;;
8887;SDS011;4480;52.370;9.748;2023-04-06T05:29:57;16.55;;;8.63;;
8887;SDS011;4480;52.370;9.748;2023-04-06T05:32:24;7.93;;;7.03;;
8887;SDS011;4480;52.370;9.748;2023-04-06T05:34:51;13.25;;;8.50;;
8887;SDS011;4480;52.370;9.748;2023-04-06T05:37:19;10.35;;;8.23;;
8887;SDS011;4480;52.370;9.748;2023-04-06T05:39:46;12.02;;;8.20;;
8887;SDS011;4480;52.370;9.748;2023-04-06T05:42:13;12.32;;;8.10;;
8887;SDS011;4480;52.370;9.748;2023-04-06T05:44:40;8.70;;;7.75;;
8887;SDS011;4480;52.370;9.748;2023-04-06T05:47:07;14.30;;;9.20;;
8887;SDS011;4480;52.370;9.748;2023-04-06T05:49:34;9.73;;;8.50;;
8887;SDS011;4480;52.370;9.748;2023-04-06T05:52:01;9.45;;;8.27;;
8887;SDS011;4480;52.370;9.748;2023-04-06T05:54:30;14.48;;;7.68;;
8887;SDS011;4480;52.370;9.748;2023-04-06T05:56:57;29.30;;;9.23;;
8887;SDS011;4480;52.370;9.748;2023-04-06T05:59:24;8.90;;;8.00;;
8887;SDS011;4480;52.370;9.748;2023-04-06T06:01:51;12.48;;;8.50;;
8887;SDS011;4480;52.370;9.748;2023-04-06T06:04:18;10.90;;;8.02;;
8887;SDS011;4480;52.370;9.748;2023-04-06T06:06:45;12.20;;;8.15;;
8887;SDS011;4480;52.370;9.748;2023-04-06T06:09:12;10.48;;;7.72;;
8887;SDS011;4480;52.370;9.748;2023-04-06T06:11:40;10.07;;;8.05;;
8887;SDS011;4480;52.370;9.748;2023-04-06T06:14:07;11.27;;;7.18;;
8887;SDS011;4480;52.370;9.748;2023-04-06T06:16:34;7.50;;;6.40;;
8887;SDS011;4480;52.370;9.748;2023-04-06T06:19:01;10.85;;;8.02;;
8887;SDS011;4480;52.370;9.748;2023-04-06T06:21:28;10.05;;;7.32;;
8887;SDS011;4480;52.370;9.748;2023-04-06T06:23:56;7.60;;;6.90;;
8887;SDS011;4480;52.370;9.748;2023-04-06T06:26:23;11.23;;;8.18;;
8887;SDS011;4480;52.370;9.748;2023-04-06T06:28:51;8.63;;;6.68;;
8887;SDS011;4480;52.370;9.748;2023-04-06T06:31:18;7.53;;;6.50;;
8887;SDS011;4480;52.370;9.748;2023-04-06T06:33:47;11.10;;;7.78;;
8887;SDS011;4480;52.370;9.748;2023-04-06T06:36:15;8.45;;;7.10;;
8887;SDS011;4480;52.370;9.748;2023-04-06T06:38:42;9.15;;;7.15;;
8887;SDS011;4480;52.370;9.748;2023-04-06T06:41:09;8.10;;;7.30;;
8887;SDS011;4480;52.370;9.748;2023-04-06T06:43:36;9.43;;;7.32;;
8887;SDS011;4480;52.370;9.748;2023-04-06T06:46:04;9.05;;;6.43;;
8887;SDS011;4480;52.370;9.748;2023-04-06T06:48:31;7.47;;;6.45;;
8887;SDS011;4480;52.370;9.748;2023-04-06T06:50:58;7.22;;;6.38;;
8887;SDS011;4480;52.370;9.748;2023-04-06T06:53:25;8.23;;;6.95;;
8887;SDS011;4480;52.370;9.748;2023-04-06T06:55:52;7.28;;;5.95;;
8887;SDS011;4480;52.370;9.748;2023-04-06T06:58:20;7.13;;;6.43;;
8887;SDS011;4480;52.370;9.748;2023-04-06T07:00:46;5.68;;;4.93;;
8887;SDS011;4480;52.370;9.748;2023-04-06T07:03:15;7.57;;;6.40;;
8887;SDS011;4480;52.370;9.748;2023-04-06T07:05:44;10.73;;;6.60;;
8887;SDS011;4480;52.370;9.748;2023-04-06T07:08:15;5.30;;;4.80;;
8887;SDS011;4480;52.370;9.748;2023-04-06T07:10:42;8.55;;;5.82;;
8887;SDS011;4480;52.370;9.748;2023-04-06T07:13:09;6.32;;;5.72;;
8887;SDS011;4480;52.370;9.748;2023-04-06T07:15:36;9.63;;;6.25;;
8887;SDS011;4480;52.370;9.748;2023-04-06T07:18:03;5.95;;;5.43;;
8887;SDS011;4480;52.370;9.748;2023-04-06T07:23:07;8.20;;;6.07;;
8887;SDS011;4480;52.370;9.748;2023-04-06T07:25:34;7.25;;;5.93;;
8887;SDS011;4480;52.370;9.748;2023-04-06T07:28:03;7.30;;;5.45;;
8887;SDS011;4480;52.370;9.748;2023-04-06T07:30:31;6.68;;;6.07;;
8887;SDS011;4480;52.370;9.748;2023-04-06T07:32:58;7.50;;;6.80;;
8887;SDS011;4480;52.370;9.748;2023-04-06T07:35:25;7.05;;;6.35;;
8887;SDS011;4480;52.370;9.748;2023-04-06T07:37:55;6.32;;;5.70;;
8887;SDS011;4480;52.370;9.748;2023-04-06T07:40:23;8.30;;;6.70;;
8887;SDS011;4480;52.370;9.748;2023-04-06T07:42:51;8.70;;;5.43;;
8887;SDS011;4480;52.370;9.748;2023-04-06T07:45:18;7.50;;;6.80;;
8887;SDS011;4480;52.370;9.748;2023-04-06T07:47:45;6.65;;;6.05;;
8887;SDS011;4480;52.370;9.748;2023-04-06T07:50:12;7.82;;;7.00;;
8887;SDS011;4480;52.370;9.748;2023-04-06T07:52:39;7.15;;;6.45;;
8887;SDS011;4480;52.370;9.748;2023-04-06T07:55:06;7.30;;;6.10;;
8887;SDS011;4480;52.370;9.748;2023-04-06T07:57:35;7.55;;;6.00;;
8887;SDS011;4480;52.370;9.748;2023-04-06T08:00:02;6.50;;;5.78;;
8887;SDS011;4480;52.370;9.748;2023-04-06T08:02:31;7.45;;;6.75;;
8887;SDS011;4480;52.370;9.748;2023-04-06T08:04:58;8.18;;;5.90;;
8887;SDS011;4480;52.370;9.748;2023-04-06T08:07:25;9.68;;;6.85;;
8887;SDS011;4480;52.370;9.748;2023-04-06T08:09:52;6.88;;;6.20;;
8887;SDS011;4480;52.370;9.748;2023-04-06T08:12:20;9.00;;;6.78;;
8887;SDS011;4480;52.370;9.748;2023-04-06T08:14:49;7.20;;;6.00;;
8887;SDS011;4480;52.370;9.748;2023-04-06T08:17:16;6.90;;;6.25;;
8887;SDS011;4480;52.370;9.748;2023-04-06T08:19:42;10.93;;;5.90;;
8887;SDS011;4480;52.370;9.748;2023-04-06T08:22:10;8.57;;;6.07;;
8887;SDS011;4480;52.370;9.748;2023-04-06T08:24:37;6.90;;;5.85;;
8887;SDS011;4480;52.370;9.748;2023-04-06T08:27:04;6.50;;;5.88;;
8887;SDS011;4480;52.370;9.748;2023-04-06T08:29:34;7.05;;;6.35;;
8887;SDS011;4480;52.370;9.748;2023-04-06T08:32:02;8.35;;;7.05;;
8887;SDS011;4480;52.370;9.748;2023-04-06T08:34:31;8.18;;;6.65;;
8887;SDS011;4480;52.370;9.748;2023-04-06T08:36:58;8.55;;;6.20;;
8887;SDS011;4480;52.370;9.748;2023-04-06T08:39:25;6.55;;;5.95;;
8887;SDS011;4480;52.370;9.748;2023-04-06T08:41:52;10.02;;;7.22;;
8887;SDS011;4480;52.370;9.748;2023-04-06T08:44:22;8.93;;;6.55;;
8887;SDS011;4480;52.370;9.748;2023-04-06T08:46:49;6.70;;;5.72;;
8887;SDS011;4480;52.370;9.748;2023-04-06T08:49:19;6.93;;;6.22;;
8887;SDS011;4480;52.370;9.748;2023-04-06T08:51:46;7.25;;;6.45;;
8887;SDS011;4480;52.370;9.748;2023-04-06T08:54:13;8.77;;;6.57;;
8887;SDS011;4480;52.370;9.748;2023-04-06T08:56:40;7.95;;;7.00;;
8887;SDS011;4480;52.370;9.748;2023-04-06T08:59:08;8.60;;;6.67;;
8887;SDS011;4480;52.370;9.748;2023-04-06T09:01:37;7.53;;;6.17;;
8887;SDS011;4480;52.370;9.748;2023-04-06T09:04:07;8.90;;;5.97;;
8887;SDS011;4480;52.370;9.748;2023-04-06T09:06:37;6.63;;;5.43;;
8887;SDS011;4480;52.370;9.748;2023-04-06T09:09:05;7.57;;;6.77;;
8887;SDS011;4480;52.370;9.748;2023-04-06T09:11:45;7.07;;;6.37;;
8887;SDS011;4480;52.370;9.748;2023-04-06T09:14:13;7.03;;;6.30;;
8887;SDS011;4480;52.370;9.748;2023-04-06T09:16:42;11.50;;;7.03;;
8887;SDS011;4480;52.370;9.748;2023-04-06T09:19:10;6.97;;;6.27;;
8887;SDS011;4480;52.370;9.748;2023-04-06T09:21:39;7.70;;;6.90;;
8887;SDS011;4480;52.370;9.748;2023-04-06T09:24:07;8.33;;;6.53;;
8887;SDS011;4480;52.370;9.748;2023-04-06T09:26:43;8.00;;;7.20;;
8887;SDS011;4480;52.370;9.748;2023-04-06T09:29:21;7.90;;;6.83;;
8887;SDS011;4480;52.370;9.748;2023-04-06T09:31:49;10.10;;;7.00;;
8887;SDS011;4480;52.370;9.748;2023-04-06T09:34:22;8.77;;;6.63;;
8887;SDS011;4480;52.370;9.748;2023-04-06T09:36:53;8.70;;;6.10;;
8887;SDS011;4480;52.370;9.748;2023-04-06T09:39:21;7.33;;;6.10;;
8887;SDS011;4480;52.370;9.748;2023-04-06T09:41:50;9.33;;;6.47;;
8887;SDS011;4480;52.370;9.748;2023-04-06T09:44:17;12.60;;;7.50;;
8887;SDS011;4480;52.370;9.748;2023-04-06T09:46:45;6.40;;;5.80;;
8887;SDS011;4480;52.370;9.748;2023-04-06T09:49:13;9.43;;;6.00;;
8887;SDS011;4480;52.370;9.748;2023-04-06T09:51:41;7.93;;;6.87;;
8887;SDS011;4480;52.370;9.748;2023-04-06T09:54:15;7.73;;;6.93;;
8887;SDS011;4480;52.370;9.748;2023-04-06T09:56:49;7.33;;;5.97;;
8887;SDS011;4480;52.370;9.748;2023-04-06T09:59:18;9.03;;;6.73;;
8887;SDS011;4480;52.370;9.748;2023-04-06T10:01:52;14.00;;;6.13;;
8887;SDS011;4480;52.370;9.748;2023-04-06T10:04:24;6.90;;;5.80;;
8887;SDS011;4480;52.370;9.748;2023-04-06T10:06:58;6.80;;;5.87;;
8887;SDS011;4480;52.370;9.748;2023-04-06T10:09:28;10.17;;;7.00;;
8887;SDS011;4480;52.370;9.748;2023-04-06T10:12:00;9.17;;;6.30;;
8887;SDS011;4480;52.370;9.748;2023-04-06T10:14:29;8.17;;;6.10;;
8887;SDS011;4480;52.370;9.748;2023-04-06T10:16:56;7.10;;;5.97;;
8887;SDS011;4480;52.370;9.748;2023-04-06T10:19:25;6.07;;;5.30;;
8887;SDS011;4480;52.370;9.748;2023-04-06T10:21:54;7.53;;;6.20;;
8887;SDS011;4480;52.370;9.748;2023-04-06T10:24:24;6.97;;;5.70;;
8887;SDS011;4480;52.370;9.748;2023-04-06T10:26:58;7.80;;;6.30;;
8887;SDS011;4480;52.370;9.748;2023-04-06T10:29:28;8.43;;;6.10;;
8887;SDS011;4480;52.370;9.748;2023-04-06T10:32:12;8.60;;;6.70;;
8887;SDS011;4480;52.370;9.748;2023-04-06T10:34:39;6.23;;;5.63;;
8887;SDS011;4480;52.370;9.748;2023-04-06T10:37:10;7.33;;;6.07;;
8887;SDS011;4480;52.370;9.748;2023-04-06T10:39:47;7.50;;;5.97;;
8887;SDS011;4480;52.370;9.748;2023-04-06T10:42:21;15.23;;;8.73;;
8887;SDS011;4480;52.370;9.748;2023-04-06T10:44:50;12.73;;;8.60;;
8887;SDS011;4480;52.370;9.748;2023-04-06T10:47:17;22.73;;;13.80;;
8887;SDS011;4480;52.370;9.748;2023-04-06T10:49:44;9.87;;;6.90;;
8887;SDS011;4480;52.370;9.748;2023-04-06T10:52:12;7.90;;;6.57;;
8887;SDS011;4480;52.370;9.748;2023-04-06T10:54:40;7.30;;;6.40;;
8887;SDS011;4480;52.370;9.748;2023-04-06T10:57:09;7.83;;;6.73;;
8887;SDS011;4480;52.370;9.748;2023-04-06T10:59:37;7.90;;;7.03;;
8887;SDS011;4480;52.370;9.748;2023-04-06T11:02:08;8.20;;;6.77;;
8887;SDS011;4480;52.370;9.748;2023-04-06T11:04:53;10.10;;;6.77;;
8887;SDS011;4480;52.370;9.748;2023-04-06T11:07:22;7.60;;;6.30;;
8887;SDS011;4480;52.370;9.748;2023-04-06T11:09:50;7.73;;;6.50;;
8887;SDS011;4480;52.370;9.748;2023-04-06T11:12:20;7.63;;;6.90;;
8887;SDS011;4480;52.370;9.748;2023-04-06T11:14:53;6.50;;;5.90;;
8887;SDS011;4480;52.370;9.748;2023-04-06T11:17:26;10.60;;;6.70;;
8887;SDS011;4480;52.370;9.748;2023-04-06T11:19:53;7.97;;;6.30;;
8887;SDS011;4480;52.370;9.748;2023-04-06T11:22:20;10.13;;;7.83;;
8887;SDS011;4480;52.370;9.748;2023-04-06T11:24:47;8.60;;;7.00;;
8887;SDS011;4480;52.370;9.748;2023-04-06T11:27:15;15.40;;;8.97;;
8887;SDS011;4480;52.370;9.748;2023-04-06T11:29:42;10.50;;;8.57;;
8887;SDS011;4480;52.370;9.748;2023-04-06T11:32:19;8.97;;;8.07;;
8887;SDS011;4480;52.370;9.748;2023-04-06T11:34:47;9.23;;;7.60;;
8887;SDS011;4480;52.370;9.748;2023-04-06T11:37:14;10.60;;;7.43;;
8887;SDS011;4480;52.370;9.748;2023-04-06T11:39:43;8.53;;;7.70;;
8887;SDS011;4480;52.370;9.748;2023-04-06T11:42:20;9.13;;;7.60;;
8887;SDS011;4480;52.370;9.748;2023-04-06T11:44:49;8.30;;;7.37;;
8887;SDS011;4480;52.370;9.748;2023-04-06T11:47:19;8.97;;;7.57;;
8887;SDS011;4480;52.370;9.748;2023-04-06T11:49:47;8.77;;;7.80;;
8887;SDS011;4480;52.370;9.748;2023-04-06T11:52:15;9.77;;;7.97;;
8887;SDS011;4480;52.370;9.748;2023-04-06T11:54:43;9.83;;;6.97;;
8887;SDS011;4480;52.370;9.748;2023-04-06T11:57:10;8.43;;;7.60;;
8887;SDS011;4480;52.370;9.748;2023-04-06T11:59:37;10.30;;;8.07;;
8887;SDS011;4480;52.370;9.748;2023-04-06T12:02:04;10.13;;;8.13;;
8887;SDS011;4480;52.370;9.748;2023-04-06T12:04:33;9.20;;;6.70;;
8887;SDS011;4480;52.370;9.748;2023-04-06T12:07:00;12.87;;;7.90;;
8887;SDS011;4480;52.370;9.748;2023-04-06T12:09:27;10.47;;;9.47;;
8887;SDS011;4480;52.370;9.748;2023-04-06T12:11:54;9.60;;;7.87;;
8887;SDS011;4480;52.370;9.748;2023-04-06T12:14:21;10.47;;;8.20;;
8887;SDS011;4480;52.370;9.748;2023-04-06T12:16:48;12.80;;;8.03;;
8887;SDS011;4480;52.370;9.748;2023-04-06T12:19:15;9.40;;;8.40;;
8887;SDS011;4480;52.370;9.748;2023-04-06T12:21:43;9.17;;;7.80;;
8887;SDS011;4480;52.370;9.748;2023-04-06T12:24:10;8.70;;;7.70;;
8887;SDS011;4480;52.370;9.748;2023-04-06T12:26:37;9.07;;;7.73;;
8887;SDS011;4480;52.370;9.748;2023-04-06T12:29:06;10.20;;;7.53;;
8887;SDS011;4480;52.370;9.748;2023-04-06T12:31:34;9.47;;;8.00;;
8887;SDS011;4480;52.370;9.748;2023-04-06T12:34:03;8.47;;;7.03;;
8887;SDS011;4480;52.370;9.748;2023-04-06T12:36:30;8.97;;;8.07;;
8887;SDS011;4480;52.370;9.748;2023-04-06T12:38:58;8.87;;;7.93;;
8887;SDS011;4480;52.370;9.748;2023-04-06T12:41:27;11.40;;;7.50;;
8887;SDS011;4480;52.370;9.748;2023-04-06T12:43:54;8.93;;;8.03;;
8887;SDS011;4480;52.370;9.748;2023-04-06T12:46:21;8.00;;;7.20;;
8887;SDS011;4480;52.370;9.748;2023-04-06T12:48:49;8.30;;;7.50;;
8887;SDS011;4480;52.370;9.748;2023-04-06T12:51:18;11.30;;;8.20;;
8887;SDS011;4480;52.370;9.748;2023-04-06T12:53:45;8.60;;;7.80;;
8887;SDS011;4480;52.370;9.748;2023-04-06T12:56:14;8.53;;;7.60;;
8887;SDS011;4480;52.370;9.748;2023-04-06T12:58:42;8.33;;;7.53;;
8887;SDS011;4480;52.370;9.748;2023-04-06T13:01:09;8.53;;;7.50;;
8887;SDS011;4480;52.370;9.748;2023-04-06T13:03:37;8.13;;;7.30;;
8887;SDS011;4480;52.370;9.748;2023-04-06T13:06:05;9.20;;;8.10;;
8887;SDS011;4480;52.370;9.748;2023-04-06T13:08:33;8.20;;;7.03;;
8887;SDS011;4480;52.370;9.748;2023-04-06T13:11:01;11.80;;;8.70;;
8887;SDS011;4480;52.370;9.748;2023-04-06T13:13:29;8.07;;;7.27;;
8887;SDS011;4480;52.370;9.748;2023-04-06T13:15:59;9.03;;;8.10;;
8887;SDS011;4480;52.370;9.748;2023-04-06T13:18:27;11.47;;;8.30;;
8887;SDS011;4480;52.370;9.748;2023-04-06T13:20:54;8.30;;;6.93;;
8887;SDS011;4480;52.370;9.748;2023-04-06T13:23:21;8.30;;;7.50;;
8887;SDS011;4480;52.370;9.748;2023-04-06T13:25:56;9.50;;;7.83;;
8887;SDS011;4480;52.370;9.748;2023-04-06T13:28:24;11.67;;;10.50;;
8887;SDS011;4480;52.370;9.748;2023-04-06T13:30:53;9.03;;;8.17;;
8887;SDS011;4480;52.370;9.748;2023-04-06T13:33:20;9.87;;;8.87;;
8887;SDS011;4480;52.370;9.748;2023-04-06T13:35:47;9.13;;;7.73;;
8887;SDS011;4480;52.370;9.748;2023-04-06T13:38:14;7.87;;;7.10;;
8887;SDS011;4480;52.370;9.748;2023-04-06T13:40:42;8.40;;;7.43;;
8887;SDS011;4480;52.370;9.748;2023-04-06T13:43:09;9.57;;;7.83;;
8887;SDS011;4480;52.370;9.748;2023-04-06T13:45:36;8.17;;;7.37;;
8887;SDS011;4480;52.370;9.748;2023-04-06T13:48:05;8.40;;;7.17;;
8887;SDS011;4480;52.370;9.748;2023-04-06T13:50:32;8.43;;;7.10;;
8887;SDS011;4480;52.370;9.748;2023-04-06T13:53:02;10.10;;;7.97;;
8887;SDS011;4480;52.370;9.748;2023-04-06T13:55:29;8.23;;;7.33;;
8887;SDS011;4480;52.370;9.748;2023-04-06T13:57:56;8.63;;;6.57;;
8887;SDS011;4480;52.370;9.748;2023-04-06T14:00:23;8.93;;;8.03;;
8887;SDS011;4480;52.370;9.748;2023-04-06T14:02:50;14.87;;;8.10;;
8887;SDS011;4480;52.370;9.748;2023-04-06T14:05:21;7.87;;;7.07;;
8887;SDS011;4480;52.370;9.748;2023-04-06T14:07:48;7.53;;;6.83;;
8887;SDS011;4480;52.370;9.748;2023-04-06T14:10:15;7.57;;;6.50;;
8887;SDS011;4480;52.370;9.748;2023-04-06T14:12:43;8.10;;;7.30;;
8887;SDS011;4480;52.370;9.748;2023-04-06T14:15:10;8.13;;;6.80;;
8887;SDS011;4480;52.370;9.748;2023-04-06T14:17:38;9.67;;;6.93;;
8887;SDS011;4480;52.370;9.748;2023-04-06T14:20:05;7.33;;;6.60;;
8887;SDS011;4480;52.370;9.748;2023-04-06T14:22:40;6.73;;;5.93;;
8887;SDS011;4480;52.370;9.748;2023-04-06T14:25:07;8.17;;;6.70;;
8887;SDS011;4480;52.370;9.748;2023-04-06T14:27:36;7.97;;;7.17;;
8887;SDS011;4480;52.370;9.748;2023-04-06T14:30:03;10.67;;;8.63;;
8887;SDS011;4480;52.370;9.748;2023-04-06T14:32:30;11.07;;;7.90;;
8887;SDS011;4480;52.370;9.748;2023-04-06T14:34:57;7.50;;;6.60;;
8887;SDS011;4480;52.370;9.748;2023-04-06T14:37:24;8.70;;;7.07;;
8887;SDS011;4480;52.370;9.748;2023-04-06T14:39:52;7.20;;;6.50;;
8887;SDS011;4480;52.370;9.748;2023-04-06T14:42:19;9.73;;;6.60;;
8887;SDS011;4480;52.370;9.748;2023-04-06T14:44:46;7.90;;;6.17;;
8887;SDS011;4480;52.370;9.748;2023-04-06T14:47:13;9.23;;;7.63;;
8887;SDS011;4480;52.370;9.748;2023-04-06T14:49:45;7.40;;;6.70;;
8887;SDS011;4480;52.370;9.748;2023-04-06T14:52:12;13.63;;;7.30;;
8887;SDS011;4480;52.370;9.748;2023-04-06T14:54:38;8.30;;;7.50;;
8887;SDS011;4480;52.370;9.748;2023-04-06T14:57:07;12.00;;;7.70;;
8887;SDS011;4480;52.370;9.748;2023-04-06T14:59:33;9.80;;;6.73;;
8887;SDS011;4480;52.370;9.748;2023-04-06T15:02:01;8.83;;;7.03;;
8887;SDS011;4480;52.370;9.748;2023-04-06T15:04:28;8.33;;;7.53;;
8887;SDS011;4480;52.370;9.748;2023-04-06T15:06:55;7.90;;;7.07;;
8887;SDS011;4480;52.370;9.748;2023-04-06T15:09:21;10.20;;;6.60;;
8887;SDS011;4480;52.370;9.748;2023-04-06T15:11:48;10.63;;;7.10;;
8887;SDS011;4480;52.370;9.748;2023-04-06T15:14:16;9.83;;;7.90;;
8887;SDS011;4480;52.370;9.748;2023-04-06T15:16:43;8.23;;;7.30;;